createdAt,value
2016-11-09T00:00:36.517Z,14.94
2016-11-09T00:01:49.134Z,14.97
2016-11-09T00:03:01.159Z,14.94
2016-11-09T00:04:13.052Z,15
2016-11-09T00:05:25.182Z,14.94
2016-11-09T00:06:36.897Z,14.97
2016-11-09T00:07:48.658Z,15.06
2016-11-09T00:09:00.129Z,15.04
2016-11-09T00:10:12.217Z,15.03
2016-11-09T00:11:24.550Z,15.04
2016-11-09T00:12:36.506Z,15.06
2016-11-09T00:13:48.707Z,15.11
2016-11-09T00:15:00.992Z,15.09
2016-11-09T00:16:12.289Z,15.07
2016-11-09T00:17:23.384Z,15.09
2016-11-09T00:18:36.411Z,15.1
2016-11-09T00:19:49.509Z,14.96
2016-11-09T00:21:02.286Z,15.14
2016-11-09T00:22:14.014Z,15
2016-11-09T00:23:27.200Z,14.89
2016-11-09T00:24:38.841Z,14.94
2016-11-09T00:25:50.429Z,14.92
2016-11-09T00:27:02.527Z,15.03
2016-11-09T00:28:14.089Z,14.97
2016-11-09T00:29:26.110Z,14.86
2016-11-09T00:30:37.960Z,14.92
2016-11-09T00:31:50.740Z,14.88
2016-11-09T00:33:02.563Z,14.89
2016-11-09T00:34:15.348Z,14.91
2016-11-09T00:35:26.196Z,14.91
2016-11-09T00:36:37.755Z,14.99
2016-11-09T00:37:49.339Z,14.92
2016-11-09T00:39:00.491Z,14.96
2016-11-09T00:40:11.796Z,15
2016-11-09T00:41:23.836Z,14.99
2016-11-09T00:42:35.090Z,15.07
2016-11-09T00:43:47.767Z,14.99
2016-11-09T00:44:58.773Z,15.04
2016-11-09T00:46:09.366Z,15.07
2016-11-09T00:47:21.665Z,15.1
2016-11-09T00:48:34.182Z,15.18
2016-11-09T00:49:46.331Z,15.06
2016-11-09T00:50:57.833Z,15.03
2016-11-09T00:52:10.063Z,14.94
2016-11-09T00:53:20.722Z,14.99
2016-11-09T00:54:32.842Z,14.92
2016-11-09T00:55:45.561Z,14.97
2016-11-09T00:56:58.084Z,14.85
2016-11-09T00:58:10.144Z,14.89
2016-11-09T00:59:21.462Z,14.88
2016-11-09T01:00:34.096Z,14.88
2016-11-09T01:01:45.538Z,14.85
2016-11-09T01:02:57.212Z,14.88
2016-11-09T01:04:09.371Z,14.88
2016-11-09T01:05:20.279Z,14.92
2016-11-09T01:06:32.931Z,14.84
2016-11-09T01:07:44.261Z,14.94
2016-11-09T01:08:56.179Z,14.86
2016-11-09T01:10:08.971Z,14.89
2016-11-09T01:11:20.815Z,14.94
2016-11-09T01:12:32.910Z,14.96
2016-11-09T01:13:44.123Z,14.89
2016-11-09T01:14:55.165Z,14.89
2016-11-09T01:16:07.827Z,14.89
2016-11-09T01:17:19.113Z,14.85
2016-11-09T01:18:31.052Z,14.88
2016-11-09T01:19:42.248Z,14.88
2016-11-09T01:20:54.180Z,14.85
2016-11-09T01:22:04.584Z,14.89
2016-11-09T01:23:16.809Z,14.92
2016-11-09T01:24:27.314Z,14.89
2016-11-09T01:25:39.087Z,14.86
2016-11-09T01:26:50.917Z,14.91
2016-11-09T01:28:03.485Z,14.88
2016-11-09T01:29:14.186Z,14.91
2016-11-09T01:30:26.416Z,14.94
2016-11-09T01:31:38.977Z,15
2016-11-09T01:32:49.989Z,14.92
2016-11-09T01:34:01.831Z,14.94
2016-11-09T01:35:15.153Z,14.92
2016-11-09T01:36:26.681Z,15.03
2016-11-09T01:37:38.264Z,14.97
2016-11-09T01:38:49.374Z,14.91
2016-11-09T01:40:00.679Z,14.97
2016-11-09T01:41:12.607Z,14.96
2016-11-09T01:42:25.867Z,14.97
2016-11-09T01:43:38.113Z,14.92
2016-11-09T01:44:50.717Z,14.96
2016-11-09T01:46:02.848Z,14.94
2016-11-09T01:47:15.162Z,15
2016-11-09T01:48:27.570Z,14.94
2016-11-09T01:49:39.353Z,14.92
2016-11-09T01:50:51.676Z,14.91
2016-11-09T01:52:04.046Z,15.02
2016-11-09T01:53:16.673Z,14.96
2016-11-09T01:54:27.931Z,14.96
2016-11-09T01:55:39.135Z,14.99
2016-11-09T01:56:50.832Z,15.09
2016-11-09T01:58:03.497Z,14.99
2016-11-09T01:59:15.210Z,15.14
2016-11-09T02:00:27.121Z,14.96
2016-11-09T02:01:38.667Z,15.02
2016-11-09T02:02:50.432Z,15.11
2016-11-09T02:04:03.038Z,15.04
2016-11-09T02:05:15.055Z,15.09
2016-11-09T02:06:26.153Z,15.09
2016-11-09T02:07:38.062Z,15.07
2016-11-09T02:08:49.456Z,15.06
2016-11-09T02:10:01.079Z,15.18
2016-11-09T02:11:12.288Z,15.15
2016-11-09T02:12:24.288Z,15.21
2016-11-09T02:13:36.073Z,15.1
2016-11-09T02:14:48.213Z,15.25
2016-11-09T02:16:00.153Z,15.31
2016-11-09T02:17:10.856Z,15.25
2016-11-09T02:18:22.538Z,15.31
2016-11-09T02:19:34.126Z,15.33
2016-11-09T02:20:45.508Z,15.19
2016-11-09T02:21:57.628Z,15.17
2016-11-09T02:23:09.514Z,15.27
2016-11-09T02:24:20.760Z,15.29
2016-11-09T02:25:32.010Z,15.25
2016-11-09T02:26:43.383Z,15.27
2016-11-09T02:27:56.160Z,15.31
2016-11-09T02:29:08.386Z,15.4
2016-11-09T02:30:19.965Z,15.28
2016-11-09T02:31:31.545Z,15.24
2016-11-09T02:32:43.661Z,15.28
2016-11-09T02:33:54.977Z,15.29
2016-11-09T02:35:08.001Z,15.42
2016-11-09T02:36:19.714Z,15.36
2016-11-09T02:37:31.270Z,15.36
2016-11-09T02:38:44.553Z,15.35
2016-11-09T02:39:57.061Z,15.31
2016-11-09T02:41:10.261Z,15.36
2016-11-09T02:42:22.446Z,15.33
2016-11-09T02:43:34.608Z,15.28
2016-11-09T02:44:45.778Z,15.25
2016-11-09T02:45:58.037Z,15.24
2016-11-09T02:47:09.508Z,15.24
2016-11-09T02:48:21.791Z,15.06
2016-11-09T02:49:33.879Z,14.99
2016-11-09T02:50:45.117Z,14.97
2016-11-09T02:51:56.559Z,14.97
2016-11-09T02:53:08.625Z,14.92
2016-11-09T02:54:19.192Z,14.85
2016-11-09T02:55:30.189Z,14.79
2016-11-09T02:56:41.714Z,14.84
2016-11-09T02:57:53.753Z,14.88
2016-11-09T02:59:04.448Z,14.88
2016-11-09T03:00:16.291Z,14.89
2016-11-09T03:01:28.679Z,14.92
2016-11-09T03:02:40.323Z,14.99
2016-11-09T03:03:50.747Z,15
2016-11-09T03:05:03.085Z,15
2016-11-09T03:06:15.034Z,14.96
2016-11-09T03:07:27.801Z,15.04
2016-11-09T03:08:40.027Z,14.96
2016-11-09T03:09:52.607Z,15.04
2016-11-09T03:11:04.729Z,15
2016-11-09T03:12:17.550Z,15.14
2016-11-09T03:13:29.273Z,15.09
2016-11-09T03:14:41.282Z,15.07
2016-11-09T03:15:53.219Z,15.18
2016-11-09T03:17:04.703Z,15.22
2016-11-09T03:18:15.744Z,15.1
2016-11-09T03:19:26.968Z,15.15
2016-11-09T03:20:38.983Z,15.18
2016-11-09T03:21:50.894Z,15.14
2016-11-09T03:23:02.944Z,15.21
2016-11-09T03:24:15.488Z,15.1
2016-11-09T03:25:27.977Z,15.25
2016-11-09T03:26:39.764Z,15.21
2016-11-09T03:27:51.122Z,15.19
2016-11-09T03:29:02.842Z,15.15
2016-11-09T03:30:15.929Z,15.17
2016-11-09T03:31:28.421Z,15.14
2016-11-09T03:32:38.792Z,15.21
2016-11-09T03:33:51.308Z,15.1
2016-11-09T03:35:03.326Z,15.22
2016-11-09T03:36:16.153Z,15.22
2016-11-09T03:37:27.341Z,15.22
2016-11-09T03:38:39.470Z,15.21
2016-11-09T03:39:51.252Z,15.17
2016-11-09T03:41:03.338Z,15.29
2016-11-09T03:42:14.750Z,15.31
2016-11-09T03:43:26.270Z,15.22
2016-11-09T03:44:36.944Z,15.25
2016-11-09T03:45:48.986Z,15.21
2016-11-09T03:47:00.703Z,15.29
2016-11-09T03:48:12.458Z,15.24
2016-11-09T03:49:24.476Z,15.24
2016-11-09T03:50:36.485Z,15.24
2016-11-09T03:51:48.526Z,15.25
2016-11-09T03:53:01.726Z,15.33
2016-11-09T03:54:14.236Z,15.24
2016-11-09T03:55:25.783Z,15.25
2016-11-09T03:56:37.263Z,15.24
2016-11-09T03:57:48.977Z,15.21
2016-11-09T03:58:59.971Z,15.22
2016-11-09T04:00:12.084Z,15.29
2016-11-09T04:01:23.891Z,15.25
2016-11-09T04:02:35.231Z,15.29
2016-11-09T04:03:48.424Z,15.31
2016-11-09T04:05:00.076Z,15.35
2016-11-09T04:06:11.607Z,15.29
2016-11-09T04:07:22.944Z,15.28
2016-11-09T04:08:33.828Z,15.21
2016-11-09T04:09:44.682Z,15.19
2016-11-09T04:10:56.353Z,15.25
2016-11-09T04:12:09.598Z,15.33
2016-11-09T04:13:21.747Z,15.21
2016-11-09T04:14:33.714Z,15.25
2016-11-09T04:15:45.279Z,15.27
2016-11-09T04:16:56.974Z,15.17
2016-11-09T04:18:08.325Z,15.22
2016-11-09T04:19:19.828Z,15.29
2016-11-09T04:20:31.713Z,15.29
2016-11-09T04:21:45.052Z,15.35
2016-11-09T04:22:57.777Z,15.31
2016-11-09T04:24:08.780Z,15.19
2016-11-09T04:25:21.434Z,15.21
2016-11-09T04:26:32.849Z,15.27
2016-11-09T04:27:44.762Z,15.25
2016-11-09T04:28:57.067Z,15.19
2016-11-09T04:30:08.094Z,15.17
2016-11-09T04:31:19.385Z,15.25
2016-11-09T04:32:31.964Z,15.19
2016-11-09T04:33:42.936Z,15.19
2016-11-09T04:34:54.473Z,15.11
2016-11-09T04:36:06.511Z,15.06
2016-11-09T04:37:18.308Z,15.18
2016-11-09T04:38:31.037Z,15.15
2016-11-09T04:39:43.146Z,15.19
2016-11-09T04:40:55.025Z,15.19
2016-11-09T04:42:06.449Z,15.24
2016-11-09T04:43:17.988Z,15.25
2016-11-09T04:44:29.992Z,15.24
2016-11-09T04:45:41.583Z,15.25
2016-11-09T04:46:53.402Z,15.29
2016-11-09T04:48:05.454Z,15.19
2016-11-09T04:49:17.409Z,15.17
2016-11-09T04:50:29.060Z,15.27
2016-11-09T04:51:41.697Z,15.21
2016-11-09T04:52:53.099Z,15.21
2016-11-09T04:54:05.182Z,15.22
2016-11-09T04:55:16.833Z,15.19
2016-11-09T04:56:29.102Z,15.24
2016-11-09T04:57:40.469Z,15.17
2016-11-09T04:58:51.970Z,15.07
2016-11-09T05:00:04.021Z,15.18
2016-11-09T05:01:15.440Z,15.17
2016-11-09T05:02:26.685Z,15.18
2016-11-09T05:03:38.090Z,15.04
2016-11-09T05:04:51.402Z,14.94
2016-11-09T05:06:04.657Z,15.06
2016-11-09T05:07:17.254Z,15.06
2016-11-09T05:08:29.069Z,15
2016-11-09T05:09:41.051Z,14.96
2016-11-09T05:10:52.368Z,14.91
2016-11-09T05:12:04.979Z,14.92
2016-11-09T05:13:16.786Z,14.97
2016-11-09T05:14:28.368Z,14.96
2016-11-09T05:15:39.752Z,14.99
2016-11-09T05:16:51.446Z,14.94
2016-11-09T05:18:02.081Z,15.04
2016-11-09T05:19:14.660Z,15.09
2016-11-09T05:20:26.120Z,15.07
2016-11-09T05:21:37.445Z,15.14
2016-11-09T05:22:49.610Z,15.18
2016-11-09T05:24:02.094Z,15.17
2016-11-09T05:25:13.871Z,15.19
2016-11-09T05:26:26.494Z,15.25
2016-11-09T05:27:38.186Z,15.18
2016-11-09T05:28:49.818Z,15.15
2016-11-09T05:30:02.520Z,15.19
2016-11-09T05:31:14.661Z,15.18
2016-11-09T05:32:25.507Z,15.25
2016-11-09T05:33:36.607Z,15.18
2016-11-09T05:34:48.255Z,15.19
2016-11-09T05:35:59.394Z,15.33
2016-11-09T05:37:11.273Z,15.21
2016-11-09T05:38:22.362Z,15.39
2016-11-09T05:39:35.537Z,15.21
2016-11-09T05:40:46.407Z,15.21
2016-11-09T05:41:57.472Z,15.21
2016-11-09T05:43:09.103Z,15.35
2016-11-09T05:44:21.845Z,15.24
2016-11-09T05:45:33.967Z,15.21
2016-11-09T05:46:46.009Z,15.29
2016-11-09T05:47:58.437Z,15.21
2016-11-09T05:49:10.764Z,15.35
2016-11-09T05:50:22.094Z,15.22
2016-11-09T05:51:34.168Z,15.25
2016-11-09T05:52:45.863Z,15.25
2016-11-09T05:53:57.418Z,15.35
2016-11-09T05:55:09.562Z,15.19
2016-11-09T05:56:20.225Z,15.22
2016-11-09T05:57:31.323Z,15.27
2016-11-09T05:58:42.547Z,15.21
2016-11-09T05:59:54.332Z,15.21
2016-11-09T06:01:05.592Z,15.17
2016-11-09T06:02:17.699Z,15.15
2016-11-09T06:03:28.040Z,15.19
2016-11-09T06:04:39.261Z,15.14
2016-11-09T06:05:50.079Z,15
2016-11-09T06:07:01.484Z,15
2016-11-09T06:08:13.723Z,14.86
2016-11-09T06:09:24.279Z,14.96
2016-11-09T06:10:35.837Z,14.86
2016-11-09T06:11:47.926Z,14.86
2016-11-09T06:12:58.932Z,14.85
2016-11-09T06:14:09.992Z,14.7
2016-11-09T06:15:22.234Z,14.84
2016-11-09T06:16:34.840Z,14.65
2016-11-09T06:17:47.503Z,14.68
2016-11-09T06:18:59.896Z,14.7
2016-11-09T06:20:10.467Z,14.58
2016-11-09T06:21:21.714Z,14.45
2016-11-09T06:22:33.007Z,14.35
2016-11-09T06:23:43.608Z,14.32
2016-11-09T06:24:55.532Z,14.28
2016-11-09T06:26:07.365Z,14.25
2016-11-09T06:27:20.624Z,14.22
2016-11-09T06:28:32.319Z,14.2
2016-11-09T06:29:44.738Z,14.22
2016-11-09T06:30:56.150Z,14.12
2016-11-09T06:32:08.037Z,14.03
2016-11-09T06:33:20.678Z,14.08
2016-11-09T06:34:32.210Z,14.05
2016-11-09T06:35:43.594Z,14.1
2016-11-09T06:36:54.243Z,14.11
2016-11-09T06:38:06.123Z,14.14
2016-11-09T06:39:17.634Z,14.08
2016-11-09T06:40:30.730Z,14.14
2016-11-09T06:41:41.708Z,14.05
2016-11-09T06:42:53.598Z,14.17
2016-11-09T06:44:04.326Z,14.11
2016-11-09T06:45:16.359Z,14.04
2016-11-09T06:46:28.503Z,14.03
2016-11-09T06:47:40.846Z,14
2016-11-09T06:48:51.168Z,14
2016-11-09T06:50:03.132Z,14.12
2016-11-09T06:51:15.747Z,14.08
2016-11-09T06:52:27.364Z,14.17
2016-11-09T06:53:39.744Z,14.12
2016-11-09T06:54:51.088Z,14.1
2016-11-09T06:56:02.879Z,14.23
2016-11-09T06:57:15.637Z,14.25
2016-11-09T06:58:27.088Z,14.22
2016-11-09T06:59:38.538Z,14.3
2016-11-09T07:00:49.276Z,14.47
2016-11-09T07:02:01.532Z,14.66
2016-11-09T07:03:13.407Z,14.79
2016-11-09T07:04:25.323Z,14.82
2016-11-09T07:05:36.729Z,14.86
2016-11-09T07:06:48.616Z,14.88
2016-11-09T07:08:01.282Z,14.88
2016-11-09T07:09:13.801Z,15
2016-11-09T07:10:26.544Z,14.99
2016-11-09T07:11:38.613Z,15
2016-11-09T07:12:51.297Z,15.09
2016-11-09T07:14:03.261Z,15.15
2016-11-09T07:15:13.473Z,15.07
2016-11-09T07:16:26.147Z,15.06
2016-11-09T07:17:37.807Z,15.18
2016-11-09T07:18:49.353Z,15.22
2016-11-09T07:20:01.574Z,15.21
2016-11-09T07:21:13.503Z,15.35
2016-11-09T07:22:25.431Z,15.31
2016-11-09T07:23:38.568Z,15.29
2016-11-09T07:24:51.264Z,15.39
2016-11-09T07:26:02.954Z,15.46
2016-11-09T07:27:14.717Z,15.43
2016-11-09T07:28:27.917Z,15.46
2016-11-09T07:29:39.297Z,15.51
2016-11-09T07:30:52.046Z,15.52
2016-11-09T07:32:04.213Z,15.47
2016-11-09T07:33:16.022Z,15.57
2016-11-09T07:34:28.037Z,15.62
2016-11-09T07:35:41.115Z,15.7
2016-11-09T07:36:53.311Z,15.7
2016-11-09T07:38:04.888Z,15.7
2016-11-09T07:39:16.467Z,15.75
2016-11-09T07:40:28.935Z,15.73
2016-11-09T07:41:41.091Z,15.77
2016-11-09T07:42:54.320Z,15.82
2016-11-09T07:44:06.843Z,15.8
2016-11-09T07:45:19.346Z,15.68
2016-11-09T07:46:30.650Z,15.7
2016-11-09T07:47:42.153Z,15.68
2016-11-09T07:48:54.395Z,15.62
2016-11-09T07:50:06.747Z,15.75
2016-11-09T07:51:19.285Z,15.75
2016-11-09T07:52:31.335Z,15.68
2016-11-09T07:53:43.464Z,15.65
2016-11-09T07:54:54.454Z,15.72
2016-11-09T07:56:06.691Z,15.77
2016-11-09T07:57:18.974Z,15.82
2016-11-09T07:58:30.041Z,15.84
2016-11-09T07:59:41.900Z,15.9
2016-11-09T08:00:53.273Z,15.9
2016-11-09T08:02:04.876Z,16
2016-11-09T08:03:16.252Z,16.12
2016-11-09T08:04:27.196Z,16.08
2016-11-09T08:05:38.783Z,16.21
2016-11-09T08:06:49.032Z,16.21
2016-11-09T08:08:01.517Z,16.35
2016-11-09T08:09:13.514Z,16.41
2016-11-09T08:10:25.464Z,16.42
2016-11-09T08:11:37.846Z,16.61
2016-11-09T08:12:48.214Z,16.68
2016-11-09T08:13:59.622Z,16.78
2016-11-09T08:15:11.103Z,16.87
2016-11-09T08:16:22.349Z,16.96
2016-11-09T08:17:34.625Z,17.06
2016-11-09T08:18:46.983Z,17.01
2016-11-09T08:19:58.920Z,16.94
2016-11-09T08:21:09.604Z,16.9
2016-11-09T08:22:21.786Z,17.08
2016-11-09T08:23:33.738Z,17.31
2016-11-09T08:24:45.762Z,17.44
2016-11-09T08:25:57.144Z,17.31
2016-11-09T08:27:08.799Z,17.24
2016-11-09T08:28:19.950Z,17.19
2016-11-09T08:29:32.308Z,17.22
2016-11-09T08:30:45.479Z,17.22
2016-11-09T08:31:57.461Z,17.31
2016-11-09T08:33:08.568Z,17.41
2016-11-09T08:34:21.608Z,17.45
2016-11-09T08:35:34.786Z,17.49
2016-11-09T08:36:47.270Z,17.56
2016-11-09T08:37:58.885Z,17.48
2016-11-09T08:39:10.156Z,17.68
2016-11-09T08:40:21.983Z,17.67
2016-11-09T08:41:33.395Z,17.74
2016-11-09T08:42:45.280Z,17.98
2016-11-09T08:43:57.153Z,18.01
2016-11-09T08:45:09.422Z,18.19
2016-11-09T08:46:22.101Z,18.28
2016-11-09T08:47:33.267Z,18.43
2016-11-09T08:48:45.467Z,18.62
2016-11-09T08:49:57.210Z,18.77
2016-11-09T08:51:10.437Z,18.86
2016-11-09T08:52:22.249Z,18.95
2016-11-09T08:53:34.079Z,18.81
2016-11-09T08:54:46.832Z,18.95
2016-11-09T08:55:58.344Z,19.07
2016-11-09T08:57:09.276Z,19.18
2016-11-09T08:58:20.643Z,19.29
2016-11-09T08:59:31.547Z,19.22
2016-11-09T09:00:43.332Z,19.33
2016-11-09T09:01:54.574Z,19.45
2016-11-09T09:03:05.789Z,19.27
2016-11-09T09:04:18.598Z,19.41
2016-11-09T09:05:30.708Z,19.55
2016-11-09T09:06:43.219Z,19.7
2016-11-09T09:07:54.735Z,19.56
2016-11-09T09:09:05.883Z,19.49
2016-11-09T09:10:17.977Z,19.55
2016-11-09T09:11:30.201Z,19.56
2016-11-09T09:12:42.314Z,19.66
2016-11-09T09:13:53.431Z,19.77
2016-11-09T09:15:05.294Z,19.89
2016-11-09T09:16:16.502Z,20.03
2016-11-09T09:17:27.852Z,19.92
2016-11-09T09:18:40.015Z,20.03
2016-11-09T09:19:52.697Z,20.09
2016-11-09T09:21:05.491Z,19.94
2016-11-09T09:22:17.956Z,20.03
2016-11-09T09:23:29.711Z,19.94
2016-11-09T09:24:41.389Z,20.03
2016-11-09T09:25:52.819Z,19.96
2016-11-09T09:27:04.755Z,19.55
2016-11-09T09:28:15.711Z,19.49
2016-11-09T09:29:28.132Z,19.52
2016-11-09T09:30:40.434Z,19.52
2016-11-09T09:31:51.779Z,19.73
2016-11-09T09:33:04.950Z,19.89
2016-11-09T09:34:16.694Z,19.59
2016-11-09T09:35:27.914Z,19.82
2016-11-09T09:36:39.166Z,19.92
2016-11-09T09:37:52.019Z,19.94
2016-11-09T09:39:03.619Z,19.54
2016-11-09T09:40:14.526Z,20.11
2016-11-09T09:41:26.134Z,19.64
2016-11-09T09:42:39.294Z,19.26
2016-11-09T09:43:52.113Z,19.24
2016-11-09T09:45:02.988Z,19.24
2016-11-09T09:46:13.987Z,19.48
2016-11-09T09:47:25.307Z,19.69
2016-11-09T09:48:37.189Z,19.84
2016-11-09T09:49:49.356Z,19.81
2016-11-09T09:51:01.900Z,19.67
2016-11-09T09:52:13.322Z,19.56
2016-11-09T09:53:25.039Z,19.71
2016-11-09T09:54:37.248Z,19.71
2016-11-09T09:55:48.773Z,19.7
2016-11-09T09:57:00.073Z,19.74
2016-11-09T09:58:11.908Z,19.74
2016-11-09T09:59:23.947Z,19.82
2016-11-09T10:00:36.264Z,19.77
2016-11-09T10:01:48.332Z,19.86
2016-11-09T10:03:01.043Z,19.96
2016-11-09T10:04:12.735Z,19.85
2016-11-09T10:05:24.111Z,19.76
2016-11-09T10:06:36.537Z,19.71
2016-11-09T10:07:48.170Z,19.52
2016-11-09T10:08:59.349Z,19.49
2016-11-09T10:10:10.666Z,19.73
2016-11-09T10:11:22.283Z,19.66
2016-11-09T10:12:34.303Z,19.81
2016-11-09T10:13:45.929Z,19.67
2016-11-09T10:14:56.822Z,19.63
2016-11-09T10:16:09.487Z,19.67
2016-11-09T10:17:21.422Z,19.82
2016-11-09T10:18:33.293Z,19.7
2016-11-09T10:19:43.886Z,19.74
2016-11-09T10:20:55.949Z,19.7
2016-11-09T10:22:07.455Z,19.84
2016-11-09T10:23:19.535Z,19.94
2016-11-09T10:24:31.959Z,20.02
2016-11-09T10:25:44.657Z,20.18
2016-11-09T10:26:57.132Z,20.39
2016-11-09T10:28:08.314Z,20.19
2016-11-09T10:29:19.639Z,20.32
2016-11-09T10:30:31.016Z,20.58
2016-11-09T10:31:42.830Z,20.69
2016-11-09T10:32:54.629Z,20.9
2016-11-09T10:34:07.264Z,20.9
2016-11-09T10:35:19.395Z,20.55
2016-11-09T10:36:31.577Z,20.34
2016-11-09T10:37:43.004Z,20.52
2016-11-09T10:38:54.613Z,20.9
2016-11-09T10:40:06.091Z,20.63
2016-11-09T10:41:16.467Z,20.77
2016-11-09T10:42:29.052Z,20.87
2016-11-09T10:43:40.894Z,20.87
2016-11-09T10:44:52.372Z,20.88
2016-11-09T10:46:03.562Z,20.9
2016-11-09T10:47:14.959Z,21.36
2016-11-09T10:48:27.123Z,21.12
2016-11-09T10:49:39.117Z,20.72
2016-11-09T10:50:49.726Z,21.06
2016-11-09T10:52:01.977Z,21.12
2016-11-09T10:53:14.189Z,21.45
2016-11-09T10:54:25.883Z,21.36
2016-11-09T10:55:37.553Z,21.42
2016-11-09T10:56:49.676Z,21.35
2016-11-09T10:58:01.514Z,21.36
2016-11-09T10:59:13.311Z,21.21
2016-11-09T11:00:24.837Z,21.12
2016-11-09T11:01:36.616Z,21.3
2016-11-09T11:02:48.587Z,21.43
2016-11-09T11:03:59.747Z,21.37
2016-11-09T11:05:11.673Z,21.4
2016-11-09T11:06:23.592Z,21.51
2016-11-09T11:07:35.589Z,21.42
2016-11-09T11:08:47.467Z,21.51
2016-11-09T11:10:00.676Z,21.4
2016-11-09T11:11:12.426Z,21.39
2016-11-09T11:12:23.923Z,21.5
2016-11-09T11:13:35.324Z,21.45
2016-11-09T11:14:46.962Z,21.37
2016-11-09T11:15:58.464Z,21.48
2016-11-09T11:17:10.065Z,21.5
2016-11-09T11:18:22.846Z,21.66
2016-11-09T11:19:34.822Z,21.88
2016-11-09T11:20:47.634Z,21.82
2016-11-09T11:21:58.933Z,21.82
2016-11-09T11:23:11.162Z,21.62
2016-11-09T11:24:22.491Z,21.77
2016-11-09T11:25:33.095Z,21.67
2016-11-09T11:26:45.189Z,21.75
2016-11-09T11:27:57.711Z,21.73
2016-11-09T11:29:09.222Z,21.79
2016-11-09T11:30:21.920Z,21.7
2016-11-09T11:31:34.181Z,21.64
2016-11-09T11:32:45.846Z,21.75
2016-11-09T11:33:57.144Z,21.67
2016-11-09T11:35:07.923Z,21.58
2016-11-09T11:36:19.168Z,21.52
2016-11-09T11:37:30.799Z,21.66
2016-11-09T11:38:43.148Z,21.58
2016-11-09T11:39:54.216Z,21.66
2016-11-09T11:41:05.034Z,21.66
2016-11-09T11:42:16.991Z,21.66
2016-11-09T11:43:28.551Z,21.64
2016-11-09T11:44:41.148Z,21.75
2016-11-09T11:45:53.190Z,21.66
2016-11-09T11:47:05.232Z,21.66
2016-11-09T11:48:17.453Z,21.75
2016-11-09T11:49:30.292Z,21.83
2016-11-09T11:50:42.369Z,21.85
2016-11-09T11:51:53.998Z,21.89
2016-11-09T11:53:06.823Z,21.96
2016-11-09T11:54:19.317Z,21.83
2016-11-09T11:55:31.059Z,21.79
2016-11-09T11:56:43.271Z,21.75
2016-11-09T11:57:53.717Z,21.76
2016-11-09T11:59:04.052Z,21.82
2016-11-09T12:00:15.978Z,21.88
2016-11-09T12:01:27.834Z,21.82
2016-11-09T12:02:39.619Z,21.88
2016-11-09T12:03:51.467Z,21.83
2016-11-09T12:05:02.544Z,21.83
2016-11-09T12:06:14.544Z,21.95
2016-11-09T12:07:26.529Z,22.15
2016-11-09T12:08:39.219Z,22.28
2016-11-09T12:09:51.398Z,22.25
2016-11-09T12:11:02.270Z,22.13
2016-11-09T12:12:14.031Z,22.17
2016-11-09T12:13:26.383Z,22.11
2016-11-09T12:14:38.240Z,21.96
2016-11-09T12:15:51.550Z,21.89
2016-11-09T12:17:03.599Z,21.93
2016-11-09T12:18:14.764Z,21.91
2016-11-09T12:19:26.989Z,21.95
2016-11-09T12:20:38.541Z,21.92
2016-11-09T12:21:49.237Z,21.8
2016-11-09T12:23:01.353Z,21.85
2016-11-09T12:24:13.819Z,21.88
2016-11-09T12:25:25.508Z,21.89
2016-11-09T12:26:37.577Z,21.82
2016-11-09T12:27:48.807Z,21.8
2016-11-09T12:29:00.535Z,21.85
2016-11-09T12:30:12.583Z,21.73
2016-11-09T12:31:23.362Z,21.76
2016-11-09T12:32:33.619Z,21.67
2016-11-09T12:33:44.933Z,21.75
2016-11-09T12:34:56.365Z,21.73
2016-11-09T12:36:08.532Z,21.75
2016-11-09T12:37:20.133Z,21.79
2016-11-09T12:38:31.270Z,21.7
2016-11-09T12:39:42.529Z,21.76
2016-11-09T12:40:53.852Z,21.82
2016-11-09T12:42:05.419Z,21.75
2016-11-09T12:43:16.798Z,21.76
2016-11-09T12:44:28.358Z,21.76
2016-11-09T12:45:39.404Z,21.77
2016-11-09T12:46:50.771Z,21.77
2016-11-09T12:48:03.088Z,21.89
2016-11-09T12:49:13.365Z,21.76
2016-11-09T12:50:26.064Z,21.76
2016-11-09T12:51:38.801Z,21.66
2016-11-09T12:52:50.210Z,21.58
2016-11-09T12:54:00.330Z,21.6
2016-11-09T12:55:11.849Z,21.52
2016-11-09T12:56:23.937Z,21.64
2016-11-09T12:57:36.882Z,21.64
2016-11-09T12:58:48.122Z,21.69
2016-11-09T13:00:00.016Z,21.73
2016-11-09T13:01:11.392Z,21.75
2016-11-09T13:02:23.231Z,21.75
2016-11-09T13:03:35.237Z,21.79
2016-11-09T13:04:46.955Z,21.73
2016-11-09T13:05:58.580Z,21.7
2016-11-09T13:07:11.655Z,21.73
2016-11-09T13:08:23.750Z,21.73
2016-11-09T13:09:35.669Z,21.67
2016-11-09T13:10:46.243Z,21.79
2016-11-09T13:11:58.500Z,21.69
2016-11-09T13:13:09.983Z,21.66
2016-11-09T13:14:21.276Z,21.64
2016-11-09T13:15:32.980Z,21.64
2016-11-09T13:16:44.043Z,21.75
2016-11-09T13:17:55.998Z,21.75
2016-11-09T13:19:08.480Z,21.73
2016-11-09T13:20:20.583Z,21.69
2016-11-09T13:21:31.819Z,21.69
2016-11-09T13:22:43.203Z,21.64
2016-11-09T13:23:55.010Z,21.69
2016-11-09T13:25:05.995Z,21.64
2016-11-09T13:26:17.016Z,21.66
2016-11-09T13:27:28.300Z,21.75
2016-11-09T13:28:41.023Z,21.52
2016-11-09T13:29:53.592Z,21.62
2016-11-09T13:31:06.762Z,21.67
2016-11-09T13:32:19.508Z,21.64
2016-11-09T13:33:30.052Z,21.67
2016-11-09T13:34:39.980Z,21.54
2016-11-09T13:35:51.332Z,21.67
2016-11-09T13:37:04.004Z,21.55
2016-11-09T13:38:16.165Z,21.55
2016-11-09T13:39:28.120Z,21.57
2016-11-09T13:40:38.676Z,21.54
2016-11-09T13:41:50.141Z,21.55
2016-11-09T13:43:02.602Z,21.45
2016-11-09T13:44:15.317Z,21.36
2016-11-09T13:45:26.868Z,21.48
2016-11-09T13:46:37.468Z,21.52
2016-11-09T13:47:48.308Z,21.72
2016-11-09T13:48:59.479Z,21.6
2016-11-09T13:50:12.598Z,21.62
2016-11-09T13:51:23.956Z,21.64
2016-11-09T13:52:35.213Z,21.57
2016-11-09T13:53:46.867Z,21.4
2016-11-09T13:54:57.553Z,21.62
2016-11-09T13:56:10.100Z,21.57
2016-11-09T13:57:22.258Z,21.57
2016-11-09T13:58:33.279Z,21.46
2016-11-09T13:59:44.085Z,21.54
2016-11-09T14:00:56.350Z,21.57
2016-11-09T14:02:08.862Z,21.42
2016-11-09T14:03:21.625Z,21.51
2016-11-09T14:04:33.043Z,21.37
2016-11-09T14:05:45.783Z,21.55
2016-11-09T14:06:57.873Z,21.39
2016-11-09T14:08:10.432Z,21.5
2016-11-09T14:09:20.447Z,21.35
2016-11-09T14:10:33.625Z,21.27
2016-11-09T14:11:44.592Z,21.35
2016-11-09T14:12:55.999Z,21.4
2016-11-09T14:14:09.141Z,21.4
2016-11-09T14:15:21.298Z,21.3
2016-11-09T14:16:32.757Z,21.4
2016-11-09T14:17:45.595Z,21.42
2016-11-09T14:18:57.172Z,21.32
2016-11-09T14:20:09.004Z,21.25
2016-11-09T14:21:19.885Z,21.32
2016-11-09T14:22:32.053Z,21.46
2016-11-09T14:23:44.002Z,21.43
2016-11-09T14:24:55.446Z,21.39
2016-11-09T14:26:07.160Z,21.4
2016-11-09T14:27:18.975Z,21.54
2016-11-09T14:28:30.309Z,21.4
2016-11-09T14:29:42.384Z,21.4
2016-11-09T14:30:53.900Z,21.27
2016-11-09T14:32:05.529Z,21.33
2016-11-09T14:33:16.796Z,21.35
2016-11-09T14:34:27.491Z,21.46
2016-11-09T14:35:39.348Z,21.46
2016-11-09T14:36:51.393Z,21.4
2016-11-09T14:38:02.995Z,21.37
2016-11-09T14:39:14.886Z,21.37
2016-11-09T14:40:26.876Z,21.25
2016-11-09T14:41:38.244Z,21.22
2016-11-09T14:42:48.984Z,21.29
2016-11-09T14:44:00.822Z,21.15
2016-11-09T14:45:13.303Z,21.25
2016-11-09T14:46:25.541Z,21.09
2016-11-09T14:47:37.885Z,21.27
2016-11-09T14:48:49.172Z,21.09
2016-11-09T14:50:01.186Z,20.96
2016-11-09T14:51:12.930Z,21.07
2016-11-09T14:52:24.554Z,21.05
2016-11-09T14:53:37.772Z,20.85
2016-11-09T14:54:49.757Z,20.77
2016-11-09T14:56:02.295Z,21.12
2016-11-09T14:57:12.677Z,21.33
2016-11-09T14:58:23.868Z,21.09
2016-11-09T14:59:36.169Z,21.06
2016-11-09T15:00:47.856Z,21.18
2016-11-09T15:01:58.439Z,21.17
2016-11-09T15:03:10.537Z,21.22
2016-11-09T15:04:22.333Z,21.03
2016-11-09T15:05:34.190Z,21.15
2016-11-09T15:06:45.047Z,21.06
2016-11-09T15:07:56.924Z,21.03
2016-11-09T15:09:07.829Z,21
2016-11-09T15:10:19.970Z,21.06
2016-11-09T15:11:31.378Z,20.93
2016-11-09T15:12:42.008Z,20.95
2016-11-09T15:13:54.104Z,20.85
2016-11-09T15:15:05.274Z,20.95
2016-11-09T15:16:16.405Z,20.9
2016-11-09T15:17:27.548Z,20.82
2016-11-09T15:18:39.647Z,20.8
2016-11-09T15:19:50.883Z,20.82
2016-11-09T15:21:02.793Z,20.7
2016-11-09T15:22:15.351Z,20.74
2016-11-09T15:23:27.483Z,20.85
2016-11-09T15:24:39.386Z,20.78
2016-11-09T15:25:50.482Z,20.66
2016-11-09T15:27:02.160Z,20.75
2016-11-09T15:28:12.775Z,20.7
2016-11-09T15:29:25.194Z,20.66